sensor_id;sensor_type;location;lat;lon;timestamp;pressure;altitude;pressure_sealevel;temperature;humidity
11314;BME280;5712;48.858;9.206;2023-02-03T00:00:01;99417.09;;;6.09;100.00
11314;BME280;5712;48.858;9.206;2023-02-03T00:02:27;99422.25;;;6.12;100.00
11314;BME280;5712;48.858;9.206;2023-02-03T00:04:54;99417.91;;;6.11;100.00
11314;BME280;5712;48.858;9.206;2023-02-03T00:07:21;99409.13;;;6.12;100.00
11314;BME280;5712;48.858;9.206;2023-02-03T00:09:49;99403.06;;;6.10;100.00
11314;BME280;5712;48.858;9.206;2023-02-03T00:12:15;99404.91;;;6.08;100.00
11314;BME280;5712;48.858;9.206;2023-02-03T00:14:42;99405.84;;;6.06;100.00
11314;BME280;5712;48.858;9.206;2023-02-03T00:17:08;99410.16;;;6.08;100.00
11314;BME280;5712;48.858;9.206;2023-02-03T00:19:35;99422.34;;;6.09;100.00
11314;BME280;5712;48.858;9.206;2023-02-03T00:22:01;99414.38;;;6.12;100.00
11314;BME280;5712;48.858;9.206;2023-02-03T00:24:28;99409.28;;;6.08;100.00
11314;BME280;5712;48.858;9.206;2023-02-03T00:26:56;99408.31;;;6.10;100.00
11314;BME280;5712;48.858;9.206;2023-02-03T00:29:23;99414.47;;;6.09;100.00
11314;BME280;5712;48.858;9.206;2023-02-03T00:31:50;99406.50;;;6.12;100.00
11314;BME280;5712;48.858;9.206;2023-02-03T00:34:17;99404.78;;;6.11;100.00
11314;BME280;5712;48.858;9.206;2023-02-03T00:36:43;99405.63;;;6.13;100.00
11314;BME280;5712;48.858;9.206;2023-02-03T00:39:10;99413.38;;;6.16;100.00
11314;BME280;5712;48.858;9.206;2023-02-03T00:41:37;99424.00;;;6.13;100.00
11314;BME280;5712;48.858;9.206;2023-02-03T00:44:05;99426.66;;;6.12;100.00
11314;BME280;5712;48.858;9.206;2023-02-03T00:46:31;99426.50;;;6.16;100.00
11314;BME280;5712;48.858;9.206;2023-02-03T00:49:00;99432.72;;;6.14;100.00
11314;BME280;5712;48.858;9.206;2023-02-03T00:51:27;99431.88;;;6.13;100.00
11314;BME280;5712;48.858;9.206;2023-02-03T00:53:53;99434.56;;;6.10;100.00
11314;BME280;5712;48.858;9.206;2023-02-03T00:56:19;99430.09;;;6.14;100.00
11314;BME280;5712;48.858;9.206;2023-02-03T00:58:46;99427.41;;;6.15;100.00
11314;BME280;5712;48.858;9.206;2023-02-03T01:01:14;99421.38;;;6.13;100.00
11314;BME280;5712;48.858;9.206;2023-02-03T01:03:40;99418.56;;;6.19;100.00
11314;BME280;5712;48.858;9.206;2023-02-03T01:06:09;99426.63;;;6.13;100.00
11314;BME280;5712;48.858;9.206;2023-02-03T01:08:36;99420.50;;;6.13;100.00
11314;BME280;5712;48.858;9.206;2023-02-03T01:11:05;99423.13;;;6.13;100.00
11314;BME280;5712;48.858;9.206;2023-02-03T01:13:32;99415.84;;;6.21;100.00
11314;BME280;5712;48.858;9.206;2023-02-03T01:15:58;99389.72;;;6.18;100.00
11314;BME280;5712;48.858;9.206;2023-02-03T01:18:26;99380.16;;;6.15;100.00
11314;BME280;5712;48.858;9.206;2023-02-03T01:20:53;99382.59;;;6.21;100.00
11314;BME280;5712;48.858;9.206;2023-02-03T01:23:20;99394.06;;;6.19;100.00
11314;BME280;5712;48.858;9.206;2023-02-03T01:25:46;99395.81;;;6.18;100.00
11314;BME280;5712;48.858;9.206;2023-02-03T01:28:12;99387.81;;;6.23;100.00
11314;BME280;5712;48.858;9.206;2023-02-03T01:30:39;99397.75;;;6.13;100.00
11314;BME280;5712;48.858;9.206;2023-02-03T01:33:05;99390.81;;;6.11;100.00
11314;BME280;5712;48.858;9.206;2023-02-03T01:35:34;99387.06;;;6.19;100.00
11314;BME280;5712;48.858;9.206;2023-02-03T01:38:00;99375.78;;;6.16;100.00
11314;BME280;5712;48.858;9.206;2023-02-03T01:40:27;99375.84;;;6.14;100.00
11314;BME280;5712;48.858;9.206;2023-02-03T01:42:53;99381.16;;;6.11;100.00
11314;BME280;5712;48.858;9.206;2023-02-03T01:45:20;99384.53;;;6.15;100.00
11314;BME280;5712;48.858;9.206;2023-02-03T01:47:49;99389.78;;;6.15;100.00
11314;BME280;5712;48.858;9.206;2023-02-03T01:50:18;99385.41;;;6.15;100.00
11314;BME280;5712;48.858;9.206;2023-02-03T01:52:49;99396.00;;;6.12;100.00
11314;BME280;5712;48.858;9.206;2023-02-03T01:55:20;99393.19;;;6.18;100.00
11314;BME280;5712;48.858;9.206;2023-02-03T01:57:51;99394.09;;;6.17;100.00
11314;BME280;5712;48.858;9.206;2023-02-03T02:00:19;99391.53;;;6.16;100.00
11314;BME280;5712;48.858;9.206;2023-02-03T02:02:46;99376.63;;;6.16;100.00
11314;BME280;5712;48.858;9.206;2023-02-03T02:05:19;99375.63;;;6.20;100.00
11314;BME280;5712;48.858;9.206;2023-02-03T02:07:50;99370.44;;;6.19;100.00
11314;BME280;5712;48.858;9.206;2023-02-03T02:10:17;99360.69;;;6.22;100.00
11314;BME280;5712;48.858;9.206;2023-02-03T02:12:43;99343.91;;;6.28;100.00
11314;BME280;5712;48.858;9.206;2023-02-03T02:15:11;99321.03;;;6.31;100.00
11314;BME280;5712;48.858;9.206;2023-02-03T02:17:59;99301.78;;;6.31;100.00
11314;BME280;5712;48.858;9.206;2023-02-03T02:20:36;99287.69;;;6.33;100.00
11314;BME280;5712;48.858;9.206;2023-02-03T02:23:26;99303.53;;;6.30;100.00
11314;BME280;5712;48.858;9.206;2023-02-03T02:26:26;99304.75;;;6.20;100.00
11314;BME280;5712;48.858;9.206;2023-02-03T02:29:14;99312.72;;;6.17;100.00
11314;BME280;5712;48.858;9.206;2023-02-03T02:31:56;99314.34;;;6.21;100.00
11314;BME280;5712;48.858;9.206;2023-02-03T02:34:36;99301.31;;;6.18;100.00
11314;BME280;5712;48.858;9.206;2023-02-03T02:37:17;99287.38;;;6.16;100.00
11314;BME280;5712;48.858;9.206;2023-02-03T02:39:52;99277.81;;;6.15;100.00
11314;BME280;5712;48.858;9.206;2023-02-03T02:42:25;99267.38;;;6.12;100.00
11314;BME280;5712;48.858;9.206;2023-02-03T02:44:58;99271.88;;;6.09;100.00
11314;BME280;5712;48.858;9.206;2023-02-03T02:47:27;99307.06;;;6.03;100.00
11314;BME280;5712;48.858;9.206;2023-02-03T02:49:57;99316.50;;;6.09;100.00
11314;BME280;5712;48.858;9.206;2023-02-03T02:52:29;99314.50;;;6.17;100.00
11314;BME280;5712;48.858;9.206;2023-02-03T02:55:04;99308.31;;;6.19;100.00
11314;BME280;5712;48.858;9.206;2023-02-03T02:57:33;99311.75;;;6.20;100.00
11314;BME280;5712;48.858;9.206;2023-02-03T03:00:03;99319.69;;;6.18;100.00
11314;BME280;5712;48.858;9.206;2023-02-03T03:02:35;99317.72;;;6.25;100.00
11314;BME280;5712;48.858;9.206;2023-02-03T03:05:04;99301.88;;;6.28;100.00
11314;BME280;5712;48.858;9.206;2023-02-03T03:07:35;99282.31;;;6.36;100.00
11314;BME280;5712;48.858;9.206;2023-02-03T03:10:07;99279.69;;;6.36;100.00
11314;BME280;5712;48.858;9.206;2023-02-03T03:12:37;99292.03;;;6.34;100.00
11314;BME280;5712;48.858;9.206;2023-02-03T03:15:10;99300.69;;;6.36;100.00
11314;BME280;5712;48.858;9.206;2023-02-03T03:17:40;99284.88;;;6.38;100.00
11314;BME280;5712;48.858;9.206;2023-02-03T03:20:10;99291.81;;;6.40;100.00
11314;BME280;5712;48.858;9.206;2023-02-03T03:22:44;99280.47;;;6.40;100.00
11314;BME280;5712;48.858;9.206;2023-02-03T03:25:15;99283.13;;;6.38;100.00
11314;BME280;5712;48.858;9.206;2023-02-03T03:27:47;99295.44;;;6.36;100.00
11314;BME280;5712;48.858;9.206;2023-02-03T03:30:17;99313.97;;;6.32;100.00
11314;BME280;5712;48.858;9.206;2023-02-03T03:32:47;99312.81;;;6.40;100.00
11314;BME280;5712;48.858;9.206;2023-02-03T03:35:14;99316.56;;;6.33;100.00
11314;BME280;5712;48.858;9.206;2023-02-03T03:37:43;99319.16;;;6.35;100.00
11314;BME280;5712;48.858;9.206;2023-02-03T03:40:17;99319.91;;;6.38;100.00
11314;BME280;5712;48.858;9.206;2023-02-03T03:42:50;99327.06;;;6.33;100.00
11314;BME280;5712;48.858;9.206;2023-02-03T03:45:21;99335.94;;;6.29;100.00
11314;BME280;5712;48.858;9.206;2023-02-03T03:47:55;99340.34;;;6.29;100.00
11314;BME280;5712;48.858;9.206;2023-02-03T03:50:26;99355.34;;;6.25;100.00
11314;BME280;5712;48.858;9.206;2023-02-03T03:52:54;99349.97;;;6.28;100.00
11314;BME280;5712;48.858;9.206;2023-02-03T03:55:23;99358.84;;;6.24;100.00
11314;BME280;5712;48.858;9.206;2023-02-03T03:57:55;99364.06;;;6.26;100.00
11314;BME280;5712;48.858;9.206;2023-02-03T04:00:26;99375.44;;;6.26;100.00
11314;BME280;5712;48.858;9.206;2023-02-03T04:02:59;99371.78;;;6.30;100.00
11314;BME280;5712;48.858;9.206;2023-02-03T04:05:27;99372.63;;;6.32;100.00
11314;BME280;5712;48.858;9.206;2023-02-03T04:07:53;99371.69;;;6.33;100.00
11314;BME280;5712;48.858;9.206;2023-02-03T04:10:24;99373.41;;;6.34;100.00
11314;BME280;5712;48.858;9.206;2023-02-03T04:12:52;99369.88;;;6.35;100.00
11314;BME280;5712;48.858;9.206;2023-02-03T04:15:19;99377.66;;;6.38;100.00
11314;BME280;5712;48.858;9.206;2023-02-03T04:17:45;99385.63;;;6.35;100.00
11314;BME280;5712;48.858;9.206;2023-02-03T04:20:14;99387.34;;;6.36;100.00
11314;BME280;5712;48.858;9.206;2023-02-03T04:22:41;99380.53;;;6.31;100.00
11314;BME280;5712;48.858;9.206;2023-02-03T04:25:08;99386.78;;;6.27;100.00
11314;BME280;5712;48.858;9.206;2023-02-03T04:27:35;99390.56;;;6.18;100.00
11314;BME280;5712;48.858;9.206;2023-02-03T04:30:01;99378.66;;;6.08;100.00
11314;BME280;5712;48.858;9.206;2023-02-03T04:32:28;99363.94;;;6.03;100.00
11314;BME280;5712;48.858;9.206;2023-02-03T04:34:55;99358.75;;;6.01;100.00
11314;BME280;5712;48.858;9.206;2023-02-03T04:37:23;99358.81;;;6.00;100.00
11314;BME280;5712;48.858;9.206;2023-02-03T04:39:50;99358.84;;;5.98;100.00
11314;BME280;5712;48.858;9.206;2023-02-03T04:42:17;99370.22;;;5.99;100.00
11314;BME280;5712;48.858;9.206;2023-02-03T04:44:44;99360.91;;;5.89;100.00
11314;BME280;5712;48.858;9.206;2023-02-03T04:47:10;99366.09;;;5.90;100.00
11314;BME280;5712;48.858;9.206;2023-02-03T04:49:37;99377.59;;;5.86;100.00
11314;BME280;5712;48.858;9.206;2023-02-03T04:52:03;99375.13;;;5.82;100.00
11314;BME280;5712;48.858;9.206;2023-02-03T04:54:31;99370.75;;;5.82;100.00
11314;BME280;5712;48.858;9.206;2023-02-03T04:56:58;99348.00;;;5.81;100.00
11314;BME280;5712;48.858;9.206;2023-02-03T04:59:25;99342.84;;;5.78;100.00
11314;BME280;5712;48.858;9.206;2023-02-03T05:01:51;99339.41;;;5.76;100.00
11314;BME280;5712;48.858;9.206;2023-02-03T05:04:18;99338.59;;;5.74;100.00
11314;BME280;5712;48.858;9.206;2023-02-03T05:06:44;99341.34;;;5.70;100.00
11314;BME280;5712;48.858;9.206;2023-02-03T05:09:11;99334.34;;;5.70;100.00
11314;BME280;5712;48.858;9.206;2023-02-03T05:11:39;99353.53;;;5.72;100.00
11314;BME280;5712;48.858;9.206;2023-02-03T05:14:06;99364.00;;;5.72;100.00
11314;BME280;5712;48.858;9.206;2023-02-03T05:16:32;99367.69;;;5.67;100.00
11314;BME280;5712;48.858;9.206;2023-02-03T05:18:59;99367.63;;;5.68;100.00
11314;BME280;5712;48.858;9.206;2023-02-03T05:21:25;99378.94;;;5.70;100.00
11314;BME280;5712;48.858;9.206;2023-02-03T05:23:52;99366.59;;;5.74;100.00
11314;BME280;5712;48.858;9.206;2023-02-03T05:26:18;99362.31;;;5.71;100.00
11314;BME280;5712;48.858;9.206;2023-02-03T05:28:46;99362.38;;;5.68;100.00
11314;BME280;5712;48.858;9.206;2023-02-03T05:31:12;99364.91;;;5.71;100.00
11314;BME280;5712;48.858;9.206;2023-02-03T05:33:39;99370.16;;;5.71;100.00
11314;BME280;5712;48.858;9.206;2023-02-03T05:36:06;99363.28;;;5.67;100.00
11314;BME280;5712;48.858;9.206;2023-02-03T05:38:33;99366.03;;;5.64;100.00
11314;BME280;5712;48.858;9.206;2023-02-03T05:40:59;99369.50;;;5.63;100.00
11314;BME280;5712;48.858;9.206;2023-02-03T05:43:59;99371.25;;;5.64;100.00
11314;BME280;5712;48.858;9.206;2023-02-03T05:46:26;99366.91;;;5.63;100.00
11314;BME280;5712;48.858;9.206;2023-02-03T05:48:52;99366.03;;;5.64;100.00
11314;BME280;5712;48.858;9.206;2023-02-03T05:51:19;99376.50;;;5.64;100.00
11314;BME280;5712;48.858;9.206;2023-02-03T05:53:45;99371.09;;;5.70;100.00
11314;BME280;5712;48.858;9.206;2023-02-03T05:56:12;99350.09;;;5.70;100.00
11314;BME280;5712;48.858;9.206;2023-02-03T05:58:38;99349.97;;;5.73;100.00
11314;BME280;5712;48.858;9.206;2023-02-03T06:01:06;99350.78;;;5.75;100.00
11314;BME280;5712;48.858;9.206;2023-02-03T06:03:33;99349.94;;;5.75;100.00
11314;BME280;5712;48.858;9.206;2023-02-03T06:05:59;99361.19;;;5.78;100.00
11314;BME280;5712;48.858;9.206;2023-02-03T06:08:25;99355.03;;;5.79;100.00
11314;BME280;5712;48.858;9.206;2023-02-03T06:10:56;99340.25;;;5.77;100.00
11314;BME280;5712;48.858;9.206;2023-02-03T06:13:23;99335.13;;;5.74;100.00
11314;BME280;5712;48.858;9.206;2023-02-03T06:15:50;99335.97;;;5.74;100.00
11314;BME280;5712;48.858;9.206;2023-02-03T06:18:18;99330.72;;;5.74;100.00
11314;BME280;5712;48.858;9.206;2023-02-03T06:20:45;99324.63;;;5.74;100.00
11314;BME280;5712;48.858;9.206;2023-02-03T06:23:11;99342.91;;;5.75;100.00
11314;BME280;5712;48.858;9.206;2023-02-03T06:25:38;99344.59;;;5.78;100.00
11314;BME280;5712;48.858;9.206;2023-02-03T06:28:04;99343.78;;;5.76;100.00
11314;BME280;5712;48.858;9.206;2023-02-03T06:30:31;99350.75;;;5.77;100.00
11314;BME280;5712;48.858;9.206;2023-02-03T06:32:57;99340.25;;;5.77;100.00
11314;BME280;5712;48.858;9.206;2023-02-03T06:35:25;99342.84;;;5.78;100.00
11314;BME280;5712;48.858;9.206;2023-02-03T06:37:51;99352.41;;;5.81;100.00
11314;BME280;5712;48.858;9.206;2023-02-03T06:40:18;99350.72;;;5.78;100.00
11314;BME280;5712;48.858;9.206;2023-02-03T06:42:45;99349.81;;;5.79;100.00
11314;BME280;5712;48.858;9.206;2023-02-03T06:45:12;99346.38;;;5.77;100.00
11314;BME280;5712;48.858;9.206;2023-02-03T06:47:39;99334.16;;;5.76;100.00
11314;BME280;5712;48.858;9.206;2023-02-03T06:50:07;99318.50;;;5.73;100.00
11314;BME280;5712;48.858;9.206;2023-02-03T06:52:35;99315.28;;;5.65;100.00
11314;BME280;5712;48.858;9.206;2023-02-03T06:55:01;99325.84;;;5.62;100.00
11314;BME280;5712;48.858;9.206;2023-02-03T06:57:28;99329.38;;;5.61;100.00
11314;BME280;5712;48.858;9.206;2023-02-03T06:59:54;99308.41;;;5.61;100.00
11314;BME280;5712;48.858;9.206;2023-02-03T07:02:22;99312.84;;;5.59;100.00
11314;BME280;5712;48.858;9.206;2023-02-03T07:04:49;99310.25;;;5.58;100.00
11314;BME280;5712;48.858;9.206;2023-02-03T07:07:15;99313.03;;;5.53;100.00
11314;BME280;5712;48.858;9.206;2023-02-03T07:09:43;99306.94;;;5.51;100.00
11314;BME280;5712;48.858;9.206;2023-02-03T07:12:09;99303.50;;;5.51;100.00
11314;BME280;5712;48.858;9.206;2023-02-03T07:14:36;99310.41;;;5.53;100.00
11314;BME280;5712;48.858;9.206;2023-02-03T07:17:04;99312.84;;;5.59;100.00
11314;BME280;5712;48.858;9.206;2023-02-03T07:19:30;99304.88;;;5.62;100.00
11314;BME280;5712;48.858;9.206;2023-02-03T07:21:57;99309.31;;;5.60;100.00
11314;BME280;5712;48.858;9.206;2023-02-03T07:24:24;99313.56;;;5.64;100.00
11314;BME280;5712;48.858;9.206;2023-02-03T07:26:52;99319.63;;;5.66;100.00
11314;BME280;5712;48.858;9.206;2023-02-03T07:29:18;99318.63;;;5.70;100.00
11314;BME280;5712;48.858;9.206;2023-02-03T07:31:45;99308.22;;;5.67;100.00
11314;BME280;5712;48.858;9.206;2023-02-03T07:34:11;99322.03;;;5.72;100.00
11314;BME280;5712;48.858;9.206;2023-02-03T07:36:38;99324.72;;;5.71;100.00
11314;BME280;5712;48.858;9.206;2023-02-03T07:39:05;99328.06;;;5.76;100.00
11314;BME280;5712;48.858;9.206;2023-02-03T07:41:32;99336.88;;;5.73;100.00
11314;BME280;5712;48.858;9.206;2023-02-03T07:43:59;99343.03;;;5.72;100.00
11314;BME280;5712;48.858;9.206;2023-02-03T07:46:26;99358.66;;;5.75;100.00
11314;BME280;5712;48.858;9.206;2023-02-03T07:48:53;99350.75;;;5.77;100.00
11314;BME280;5712;48.858;9.206;2023-02-03T07:51:19;99363.91;;;5.75;100.00
11314;BME280;5712;48.858;9.206;2023-02-03T07:53:46;99359.50;;;5.77;100.00
11314;BME280;5712;48.858;9.206;2023-02-03T07:56:12;99366.53;;;5.75;100.00
11314;BME280;5712;48.858;9.206;2023-02-03T07:58:39;99363.91;;;5.75;100.00
11314;BME280;5712;48.858;9.206;2023-02-03T08:01:11;99383.28;;;5.71;100.00
11314;BME280;5712;48.858;9.206;2023-02-03T08:03:38;99384.88;;;5.75;100.00
11314;BME280;5712;48.858;9.206;2023-02-03T08:06:05;99381.28;;;5.79;100.00
11314;BME280;5712;48.858;9.206;2023-02-03T08:08:32;99380.41;;;5.79;100.00
11314;BME280;5712;48.858;9.206;2023-02-03T08:10:58;99387.44;;;5.78;100.00
11314;BME280;5712;48.858;9.206;2023-02-03T08:13:25;99391.63;;;5.85;100.00
11314;BME280;5712;48.858;9.206;2023-02-03T08:15:51;99394.25;;;5.85;100.00
11314;BME280;5712;48.858;9.206;2023-02-03T08:18:19;99395.03;;;5.87;100.00
11314;BME280;5712;48.858;9.206;2023-02-03T08:20:46;99391.34;;;5.94;100.00
11314;BME280;5712;48.858;9.206;2023-02-03T08:23:13;99396.59;;;5.94;100.00
11314;BME280;5712;48.858;9.206;2023-02-03T08:25:40;99392.03;;;5.99;100.00
11314;BME280;5712;48.858;9.206;2023-02-03T08:28:06;99393.88;;;5.97;100.00
11314;BME280;5712;48.858;9.206;2023-02-03T08:30:33;99387.75;;;5.97;100.00
11314;BME280;5712;48.858;9.206;2023-02-03T08:32:59;99376.28;;;5.99;100.00
11314;BME280;5712;48.858;9.206;2023-02-03T08:35:27;99372.84;;;5.99;100.00
11314;BME280;5712;48.858;9.206;2023-02-03T08:37:54;99377.94;;;6.03;100.00
11314;BME280;5712;48.858;9.206;2023-02-03T08:40:21;99380.41;;;6.08;100.00
11314;BME280;5712;48.858;9.206;2023-02-03T08:42:48;99390.00;;;6.09;100.00
11314;BME280;5712;48.858;9.206;2023-02-03T08:45:14;99398.53;;;6.15;100.00
11314;BME280;5712;48.858;9.206;2023-02-03T08:47:41;99386.75;;;6.28;100.00
11314;BME280;5712;48.858;9.206;2023-02-03T08:50:08;99395.00;;;6.42;100.00
11314;BME280;5712;48.858;9.206;2023-02-03T08:52:36;99387.22;;;6.41;100.00
11314;BME280;5712;48.858;9.206;2023-02-03T08:55:03;99388.16;;;6.38;100.00
11314;BME280;5712;48.858;9.206;2023-02-03T08:57:32;99387.34;;;6.36;100.00
11314;BME280;5712;48.858;9.206;2023-02-03T08:59:59;99390.63;;;6.43;100.00
11314;BME280;5712;48.858;9.206;2023-02-03T09:02:25;99390.22;;;6.55;100.00
11314;BME280;5712;48.858;9.206;2023-02-03T09:04:52;99389.56;;;6.74;100.00
11314;BME280;5712;48.858;9.206;2023-02-03T09:07:19;99365.63;;;6.82;100.00
11314;BME280;5712;48.858;9.206;2023-02-03T09:09:46;99365.28;;;6.92;100.00
11314;BME280;5712;48.858;9.206;2023-02-03T09:12:13;99361.63;;;6.96;100.00
11314;BME280;5712;48.858;9.206;2023-02-03T09:14:39;99367.91;;;6.92;100.00
11314;BME280;5712;48.858;9.206;2023-02-03T09:17:06;99358.94;;;6.98;100.00
11314;BME280;5712;48.858;9.206;2023-02-03T09:19:33;99355.56;;;6.94;100.00
11314;BME280;5712;48.858;9.206;2023-02-03T09:21:59;99356.28;;;6.99;100.00
11314;BME280;5712;48.858;9.206;2023-02-03T09:24:26;99352.47;;;7.08;100.00
11314;BME280;5712;48.858;9.206;2023-02-03T09:26:54;99357.53;;;7.12;100.00
11314;BME280;5712;48.858;9.206;2023-02-03T09:29:20;99368.81;;;7.16;100.00
11314;BME280;5712;48.858;9.206;2023-02-03T09:31:48;99356.41;;;7.19;100.00
11314;BME280;5712;48.858;9.206;2023-02-03T09:34:16;99357.19;;;7.21;100.00
11314;BME280;5712;48.858;9.206;2023-02-03T09:36:43;99363.09;;;7.28;100.00
11314;BME280;5712;48.858;9.206;2023-02-03T09:39:09;99376.91;;;7.34;100.00
11314;BME280;5712;48.858;9.206;2023-02-03T09:41:50;99371.25;;;7.44;100.00
11314;BME280;5712;48.858;9.206;2023-02-03T09:44:24;99386.09;;;7.45;100.00
11314;BME280;5712;48.858;9.206;2023-02-03T09:46:56;99363.25;;;7.46;100.00
11314;BME280;5712;48.858;9.206;2023-02-03T09:49:36;99366.81;;;7.45;100.00
11314;BME280;5712;48.858;9.206;2023-02-03T09:52:08;99366.03;;;7.43;100.00
11314;BME280;5712;48.858;9.206;2023-02-03T09:54:39;99356.28;;;7.45;100.00
11314;BME280;5712;48.858;9.206;2023-02-03T09:57:16;99351.94;;;7.44;100.00
11314;BME280;5712;48.858;9.206;2023-02-03T09:59:45;99345.44;;;7.54;100.00
11314;BME280;5712;48.858;9.206;2023-02-03T10:02:23;99355.31;;;7.70;100.00
11314;BME280;5712;48.858;9.206;2023-02-03T10:04:57;99342.66;;;7.80;100.00
11314;BME280;5712;48.858;9.206;2023-02-03T10:07:29;99331.16;;;7.82;100.00
11314;BME280;5712;48.858;9.206;2023-02-03T10:10:08;99329.25;;;7.86;100.00
11314;BME280;5712;48.858;9.206;2023-02-03T10:12:53;99346.75;;;7.87;100.00
11314;BME280;5712;48.858;9.206;2023-02-03T10:15:52;99356.50;;;7.85;100.00
11314;BME280;5712;48.858;9.206;2023-02-03T10:18:25;99359.19;;;7.83;100.00
11314;BME280;5712;48.858;9.206;2023-02-03T10:20:56;99359.81;;;7.90;100.00
11314;BME280;5712;48.858;9.206;2023-02-03T10:23:28;99366.41;;;8.00;100.00
11314;BME280;5712;48.858;9.206;2023-02-03T10:25:58;99360.75;;;7.89;100.00
11314;BME280;5712;48.858;9.206;2023-02-03T10:28:29;99355.53;;;7.87;100.00
11314;BME280;5712;48.858;9.206;2023-02-03T10:30:58;99370.69;;;7.81;100.00
11314;BME280;5712;48.858;9.206;2023-02-03T10:33:26;99351.47;;;7.79;100.00
11314;BME280;5712;48.858;9.206;2023-02-03T10:35:54;99358.34;;;7.83;100.00
11314;BME280;5712;48.858;9.206;2023-02-03T10:38:40;99348.47;;;7.88;100.00
11314;BME280;5712;48.858;9.206;2023-02-03T10:41:11;99337.09;;;7.87;100.00
11314;BME280;5712;48.858;9.206;2023-02-03T10:43:38;99317.38;;;7.76;100.00
11314;BME280;5712;48.858;9.206;2023-02-03T10:46:18;99316.25;;;7.83;100.00
11314;BME280;5712;48.858;9.206;2023-02-03T10:48:45;99321.91;;;7.94;100.00
11314;BME280;5712;48.858;9.206;2023-02-03T10:51:17;99325.03;;;8.03;100.00
11314;BME280;5712;48.858;9.206;2023-02-03T10:53:44;99319.34;;;8.14;100.00
11314;BME280;5712;48.858;9.206;2023-02-03T10:56:12;99316.34;;;8.23;100.00
11314;BME280;5712;48.858;9.206;2023-02-03T10:58:46;99316.16;;;8.27;100.00
11314;BME280;5712;48.858;9.206;2023-02-03T11:01:15;99315.13;;;8.31;100.00
11314;BME280;5712;48.858;9.206;2023-02-03T11:03:53;99308.88;;;8.34;99.39
11314;BME280;5712;48.858;9.206;2023-02-03T11:06:20;99306.09;;;8.37;98.22
11314;BME280;5712;48.858;9.206;2023-02-03T11:08:48;99312.53;;;8.30;96.94
11314;BME280;5712;48.858;9.206;2023-02-03T11:11:20;99317.09;;;8.26;97.85
11314;BME280;5712;48.858;9.206;2023-02-03T11:13:51;99314.50;;;8.25;97.92
11314;BME280;5712;48.858;9.206;2023-02-03T11:16:18;99291.81;;;8.22;97.08
11314;BME280;5712;48.858;9.206;2023-02-03T11:18:54;99282.28;;;8.18;95.86
11314;BME280;5712;48.858;9.206;2023-02-03T11:21:24;99264.66;;;8.20;95.23
11314;BME280;5712;48.858;9.206;2023-02-03T11:23:55;99263.69;;;8.23;95.58
11314;BME280;5712;48.858;9.206;2023-02-03T11:26:25;99279.91;;;8.34;95.15
11314;BME280;5712;48.858;9.206;2023-02-03T11:28:55;99280.16;;;8.28;96.17
11314;BME280;5712;48.858;9.206;2023-02-03T11:31:24;99271.38;;;8.27;94.83
11314;BME280;5712;48.858;9.206;2023-02-03T11:33:55;99285.28;;;8.31;95.48
11314;BME280;5712;48.858;9.206;2023-02-03T11:36:25;99276.50;;;8.32;95.20
11314;BME280;5712;48.858;9.206;2023-02-03T11:38:52;99284.50;;;8.29;94.21
11314;BME280;5712;48.858;9.206;2023-02-03T11:41:36;99271.38;;;8.27;94.21
11314;BME280;5712;48.858;9.206;2023-02-03T11:44:09;99272.38;;;8.25;93.37
11314;BME280;5712;48.858;9.206;2023-02-03T11:46:36;99271.47;;;8.26;93.12
11314;BME280;5712;48.858;9.206;2023-02-03T11:49:11;99253.03;;;8.26;92.88
11314;BME280;5712;48.858;9.206;2023-02-03T11:51:47;99250.31;;;8.27;92.66
11314;BME280;5712;48.858;9.206;2023-02-03T11:54:24;99245.00;;;8.29;92.94
11314;BME280;5712;48.858;9.206;2023-02-03T11:57:06;99232.50;;;8.34;92.68
11314;BME280;5712;48.858;9.206;2023-02-03T11:59:46;99228.66;;;8.41;92.67
11314;BME280;5712;48.858;9.206;2023-02-03T12:08:34;99233.34;;;8.54;92.52
11314;BME280;5712;48.858;9.206;2023-02-03T12:11:09;99217.81;;;8.48;90.03
11314;BME280;5712;48.858;9.206;2023-02-03T12:14:07;99238.53;;;8.36;90.70
11314;BME280;5712;48.858;9.206;2023-02-03T12:16:51;99233.41;;;8.33;90.59
11314;BME280;5712;48.858;9.206;2023-02-03T12:19:30;99243.09;;;8.32;91.05
11314;BME280;5712;48.858;9.206;2023-02-03T12:22:05;99227.34;;;8.31;89.26
11314;BME280;5712;48.858;9.206;2023-02-03T12:24:40;99245.19;;;8.24;89.70
11314;BME280;5712;48.858;9.206;2023-02-03T12:27:17;99247.03;;;8.22;90.81
11314;BME280;5712;48.858;9.206;2023-02-03T12:29:50;99243.63;;;8.19;90.71
11314;BME280;5712;48.858;9.206;2023-02-03T12:32:24;99234.94;;;8.17;90.72
11314;BME280;5712;48.858;9.206;2023-02-03T12:34:58;99230.72;;;8.13;89.33
11314;BME280;5712;48.858;9.206;2023-02-03T12:37:28;99216.78;;;8.11;89.03
11314;BME280;5712;48.858;9.206;2023-02-03T12:40:00;99210.66;;;8.10;90.14
11314;BME280;5712;48.858;9.206;2023-02-03T12:42:30;99209.91;;;8.07;90.09
11314;BME280;5712;48.858;9.206;2023-02-03T12:45:03;99209.06;;;8.06;90.02
11314;BME280;5712;48.858;9.206;2023-02-03T12:47:33;99204.63;;;8.07;90.44
11314;BME280;5712;48.858;9.206;2023-02-03T12:50:08;99187.22;;;8.04;89.99
11314;BME280;5712;48.858;9.206;2023-02-03T12:52:43;99182.84;;;8.03;90.03
11314;BME280;5712;48.858;9.206;2023-02-03T12:55:19;99163.38;;;8.07;89.88
11314;BME280;5712;48.858;9.206;2023-02-03T12:57:50;99180.31;;;8.02;89.58
11314;BME280;5712;48.858;9.206;2023-02-03T13:00:29;99177.59;;;8.03;90.16
11314;BME280;5712;48.858;9.206;2023-02-03T13:03:08;99177.72;;;8.00;90.26
11314;BME280;5712;48.858;9.206;2023-02-03T13:05:41;99169.78;;;8.02;90.47
11314;BME280;5712;48.858;9.206;2023-02-03T13:08:16;99164.38;;;8.05;90.01
11314;BME280;5712;48.858;9.206;2023-02-03T13:10:46;99153.84;;;8.05;88.61
11314;BME280;5712;48.858;9.206;2023-02-03T13:13:17;99159.25;;;8.02;89.17
11314;BME280;5712;48.858;9.206;2023-02-03T13:15:48;99167.06;;;8.03;89.99
11314;BME280;5712;48.858;9.206;2023-02-03T13:18:21;99164.97;;;8.11;88.37
11314;BME280;5712;48.858;9.206;2023-02-03T13:20:51;99166.06;;;8.06;87.93
11314;BME280;5712;48.858;9.206;2023-02-03T13:23:20;99145.88;;;8.06;88.34
11314;BME280;5712;48.858;9.206;2023-02-03T13:26:05;99136.34;;;8.04;88.04
11314;BME280;5712;48.858;9.206;2023-02-03T13:28:49;99141.88;;;7.98;88.54
11314;BME280;5712;48.858;9.206;2023-02-03T13:31:31;99142.63;;;8.00;88.54